San Francisco, California
Traffic Map
Current Weather Conditions
San Francisco, California
Clear
Clear
14°
Feels Like: 14°
Wind Chill: 14° Ceiling: Unl
Heat Index: 14° Visibility: 10mi
Dew Point: Wind: 0mph
Humidity: 49% Direction: ° ()
Pressure: 30.39in Gusts: 0mph
Raw Report DataKSFO 012056Z 00000KT 10SM CLR 14/04 A3039 RMK AO2 SLP290 T01440039 58013
Traffic Incident Summary
Active as of:
Severity:
Category:
InformationThere was an issue retrieving the traffic information for this location. Please try a different location or try again shortly.
Advertisements
Track Severe Weather on mobile